Portada
METAR-TAF:

METAR-TAF

Aeropuertos :

Aeropuerto Internacional Rey Abdulaziz

Yida, Arabia Saudita

latitud: 21-42N, longitud: 039-11E, altitud: 15 m

Observación

El informe se hizo hace 19 minutos, a las 06:00 UTC
Viento 6 kt del norte-noroeste
Temperatura 33°C
Humedad 67%
Presión 1003 hPa
Visibilidad 10 km o más
sin nubes por debajo de 1500 m y sin presencia de cumulonimbus.

METAR: OEJN 220600Z 33006KT CAVOK 33/26 Q1003 NOSIG

Hora: 09:19 (06:19 UTC)

Pronóstico

El informe se hizo hace 1 hora y 19 minutos, a las 05:00 UTC
Pronóstico válido del 22 a las 06 UTC al 23 a las 12 UTC
Viento 6 kt del oeste-noroeste con ráfagas de 16 kt
Visibilidad: 8000 m
Escasas nubes a una altura de 4000 ft
Evolucionando progresivamente
del 22 a las 18 UTC al 22 a las 20 UTC
Viento 6 kt del norte

TAF: OEJN 220500Z 2206/2312 30006G16KT 8000 FEW040 BECMG 2218/2220 36006KT

Observaciones y pronósticos meteorológicos de más de 4000 aeropuertos (mensajes METAR y TAF).

Los puntos amarillos y rojos representan las estaciones disponibles.

Ponga el ratón en el punto deseado para ver el nombre de la estación.

Haga clic para ver las observaciones y los pronósticos meteorológicos.

Para cambiar el mapa : haga clic en los botones verdes con una cruz de color negro para hacer un zoom, en el botón verde con un guión para alejar o en las flechas verdes para mapas adyacentes.


METAR-TAF: